sensor_id;sensor_type;location;lat;lon;timestamp;temperature;humidity
76750;DHT22;66447;35.844;14.468;2023-12-07T08:24:10;16.28;118.99
76750;DHT22;66447;35.844;14.468;2023-12-07T08:39:13;16.85;118.99
76750;DHT22;66447;35.844;14.468;2023-12-07T08:54:14;17.30;118.99
76750;DHT22;66447;35.844;14.468;2023-12-07T09:09:15;17.24;118.99
76750;DHT22;66447;35.844;14.468;2023-12-07T09:24:15;17.63;118.99
76750;DHT22;66447;35.844;14.468;2023-12-07T09:39:16;17.97;118.99
76750;DHT22;66447;35.844;14.468;2023-12-07T09:54:18;17.13;118.99
76750;DHT22;66447;35.844;14.468;2023-12-07T10:09:20;16.89;118.99
76750;DHT22;66447;35.844;14.468;2023-12-07T10:24:24;16.92;118.99
76750;DHT22;66447;35.844;14.468;2023-12-07T10:39:25;17.03;118.99
76750;DHT22;66447;35.844;14.468;2023-12-07T10:54:46;18.29;118.99
76750;DHT22;66447;35.844;14.468;2023-12-07T11:10:05;18.06;118.99
76750;DHT22;66447;35.844;14.468;2023-12-07T11:25:08;17.60;118.99
76750;DHT22;66447;35.844;14.468;2023-12-07T11:40:10;18.29;118.99
76750;DHT22;66447;35.844;14.468;2023-12-07T11:55:11;17.20;118.99
76750;DHT22;66447;35.844;14.468;2023-12-07T12:10:12;17.43;118.99
76750;DHT22;66447;35.844;14.468;2023-12-07T12:25:13;18.42;118.99
76750;DHT22;66447;35.844;14.468;2023-12-07T12:40:19;17.67;118.99
76750;DHT22;66447;35.844;14.468;2023-12-07T12:55:20;17.64;-6.00
76750;DHT22;66447;35.844;14.468;2023-12-07T13:10:20;17.52;118.99
76750;DHT22;66447;35.844;14.468;2023-12-07T13:25:21;17.17;118.99
76750;DHT22;66447;35.844;14.468;2023-12-07T13:40:22;17.68;118.99
76750;DHT22;66447;35.844;14.468;2023-12-07T13:55:23;17.21;118.99
76750;DHT22;66447;35.844;14.468;2023-12-07T14:10:24;16.93;118.99
76750;DHT22;66447;35.844;14.468;2023-12-07T14:25:25;16.81;118.99
76750;DHT22;66447;35.844;14.468;2023-12-07T14:40:26;16.52;118.99
76750;DHT22;66447;35.844;14.468;2023-12-07T14:55:27;16.76;118.99
76750;DHT22;66447;35.844;14.468;2023-12-07T15:10:28;16.15;118.99
76750;DHT22;66447;35.844;14.468;2023-12-07T15:25:29;15.97;118.99
76750;DHT22;66447;35.844;14.468;2023-12-07T15:40:30;15.72;118.99
76750;DHT22;66447;35.844;14.468;2023-12-07T15:55:31;15.72;118.99
76750;DHT22;66447;35.844;14.468;2023-12-07T16:10:32;15.26;118.99
76750;DHT22;66447;35.844;14.468;2023-12-07T16:25:32;15.12;118.99
76750;DHT22;66447;35.844;14.468;2023-12-07T16:40:33;15.22;118.99
76750;DHT22;66447;35.844;14.468;2023-12-07T16:55:34;15.27;118.99
76750;DHT22;66447;35.844;14.468;2023-12-07T17:10:35;15.08;118.99
76750;DHT22;66447;35.844;14.468;2023-12-07T17:25:35;14.88;118.99
76750;DHT22;66447;35.844;14.468;2023-12-07T17:40:36;15.13;118.99
76750;DHT22;66447;35.844;14.468;2023-12-07T17:55:37;15.00;118.99
76750;DHT22;66447;35.844;14.468;2023-12-07T18:10:37;15.01;118.99
76750;DHT22;66447;35.844;14.468;2023-12-07T18:25:38;14.85;118.99
76750;DHT22;66447;35.844;14.468;2023-12-07T18:40:39;14.84;118.99
76750;DHT22;66447;35.844;14.468;2023-12-07T18:55:42;14.70;118.99
76750;DHT22;66447;35.844;14.468;2023-12-07T19:10:44;14.77;118.99
76750;DHT22;66447;35.844;14.468;2023-12-07T19:25:45;15.11;118.99
76750;DHT22;66447;35.844;14.468;2023-12-07T19:40:46;15.10;118.99
76750;DHT22;66447;35.844;14.468;2023-12-07T19:55:47;15.12;118.99
76750;DHT22;66447;35.844;14.468;2023-12-07T20:10:48;16.00;118.99
76750;DHT22;66447;35.844;14.468;2023-12-07T20:25:49;15.98;118.99
76750;DHT22;66447;35.844;14.468;2023-12-07T20:40:50;16.02;118.99
76750;DHT22;66447;35.844;14.468;2023-12-07T20:55:51;16.45;118.99
76750;DHT22;66447;35.844;14.468;2023-12-07T21:10:52;16.10;118.99
76750;DHT22;66447;35.844;14.468;2023-12-07T21:25:53;15.90;118.99
76750;DHT22;66447;35.844;14.468;2023-12-07T21:40:53;16.27;118.99
76750;DHT22;66447;35.844;14.468;2023-12-07T21:55:55;16.24;118.99
76750;DHT22;66447;35.844;14.468;2023-12-07T22:10:56;16.41;118.99
76750;DHT22;66447;35.844;14.468;2023-12-07T22:25:56;16.03;118.99
76750;DHT22;66447;35.844;14.468;2023-12-07T22:40:57;16.22;118.99
76750;DHT22;66447;35.844;14.468;2023-12-07T22:55:58;16.14;118.99
76750;DHT22;66447;35.844;14.468;2023-12-07T23:10:59;15.77;118.99
76750;DHT22;66447;35.844;14.468;2023-12-07T23:25:59;15.71;118.99
76750;DHT22;66447;35.844;14.468;2023-12-07T23:41:00;15.57;118.99
76750;DHT22;66447;35.844;14.468;2023-12-07T23:56:02;15.90;118.99
